Weatherby, Missouri
Current Conditions -  °F | °C
As of 1:53 PM on Thursday 18 Dec 2014 (Local Time) from KSTJ Reporting Station
Light Snow Light Snow  
Wind Chill: 26°   Ceiling: 1100
Heat Index: 31°   Visibility: 4mi
Dew Point: 28°   Wind: 5mph
Humidity: 89%   Direction: 360°N
Pressure: 30.21"   Gusts: NA
Location:  39.91°N, 94.24°W
Report Text: KSTJ 181953Z 36004KT 4SM -SN BR BKN011 OVC022 M01/M02 A3021 RMK AO2 SLP239 P0000 T10061022
Loading
Personal Weather Stations






























Interactive Weather Map New forecast layout! Learn more

10-Day Weather Forecast

Advertisements
Track Severe Weather on mobile